AirNav   Phillips 66 Aviation Fuel
 
 1395 users online  

0MA1 Massachusetts General Hospital Heliport
Boston, Massachusetts, USA

GOING TO BOSTON?


FAA INFORMATION EFFECTIVE 06 DECEMBER 2018

Location

FAA Identifier: 0MA1
Lat/Long: 42-21-49.2600N / 071-04-09.2200W
42-21.821000N / 071-04.153667W
42.3636833 / -71.0692278
(estimated)
Elevation: 195 ft. / 59 m (estimated)
Variation: 16W (1995)
Time zone: UTC -5 (UTC -4 during Daylight Saving Time)
Zip code: 02114

Heliport Operations

Heliport use: Private use, MEDICAL USE.
Activation date: 03/1998
Control tower: no
ARTCC: BOSTON CENTER
FSS: BRIDGEPORT FLIGHT SERVICE STATION
NOTAMs facility: FDC (NOTAM-D service not available)
Attendance: CONTINUOUS
Wind indicator: yes
Segmented circle: no

Heliport Communications

WX ASOS at BOS (2.8 nm E): PHONE 617-567-5762
WX ASOS at OWD (11 nm SW): 119.95 (781-762-4314)
WX ASOS at BED (12 nm NW): 124.6 (781-274-9733)
WX ASOS at BVY (15 nm NE): PHONE 978-921-5042

Nearby radio navigation aids

VOR radial/distance  VOR name  Freq  Var
BOSr292/3.6BOSTON VOR/DME112.7016W
LWMr192/22.6LAWRENCE VOR/DME112.5015W
MHTr171/33.1MANCHESTER VOR/DME114.4015W

 
NDB name  Hdg/Dist  Freq  Var  ID
SHAKER HILL155/7.325116WSKR ... -.- .-.
STOGE025/14.939715WOW --- .--
MARSHFIELD328/23.736816WIMR .. -- .-.
TAUNTON011/29.422716WTAN - .- -.
FITCHBURG125/32.536515WFIT ..-. .. -

Heliport Services

Runway Information

Helipad H1

Dimensions: 60 x 60 ft. / 18 x 18 m
Surface: asphalt
Latitude: 42-21.821000N
Longitude: 071-04.153667W
Elevation: 195.0 ft.
Traffic pattern: leftleft

Heliport Ownership and Management from official FAA records

Ownership: Privately-owned
Owner: GENERAL HOSPITAL CORPORATION
55 FRUID STREET
BOSTON, MA 02114
Phone 617-726-8616
Manager: BONNIE MICHELMAN
55 FRUIT ST
BOSTON, MA 02114
Phone (617) 726-7979

Additional Remarks

ROOFTOP.
FOR CD CTC BOSTON APCH AT 603-594-5554.

Instrument Procedures

There are no published instrument procedures at 0MA1.

Some nearby airports with instrument procedures:

KBOS - General Edward Lawrence Logan International Airport (3 nm E)
KOWD - Norwood Memorial Airport (11 nm SW)
KBED - Laurence G Hanscom Field Airport (12 nm NW)
KBVY - Beverly Regional Airport (15 nm NE)
6B6 - Minute Man Air Field (21 nm W)
 
Loc | Ops | Rwys | IFR | FBO | Links
Com | Nav | Svcs | Stats | Notes


 
Area around 0MA1 (Massachusetts General Hospital Heliport)
 
Road maps at: MapQuest Bing Google
 
Aerial photo
No photo
 
Sectional chart

 
Airport distance calculator
Flying to Massachusetts General Hospital Heliport? Find the distance to fly.

From to 0MA1

Sunrise and sunset
Times for 17-Dec-2018
 Local
(UTC-5)
 Zulu
(UTC)
Morning civil twilight06:3711:37
Sunrise07:0912:09
Sunset16:1221:12
Evening civil twilight16:4421:44

Current date and time
Zulu (UTC)  17-Dec-2018 18:26:21
Local (UTC-5)  17-Dec-2018 13:26:21
 
METAR
KBOS 
2nm E 
171819Z 28009KT 10SM BKN019 BKN025 BKN035 06/01 A2954 RMK AO2 T00560011
KMQE 
9nm S 
171756Z AUTO 28009KT 02/02 A2951 RMK AO1 SLP009 T00220017 10022 20000 56027
KOWD 
12nm S 
171753Z 28009KT 10SM OVC009 06/02 A2955 RMK AO2 SLP007 T00610022 10061 20028 56029
KBED 
12nm NW 
171756Z 29009KT 10SM SCT021 BKN026 OVC032 05/01 A2954 RMK AO2 SLP018 60001 T00500006 10050 20011 56029
KBVY 
15nm NE 
171819Z 29006KT 10SM FEW008 SCT014 OVC030 04/01 A2952 RMK AO2 T00390011
TAF
KBOS 
2nm E 
171734Z 1718/1824 30010KT P6SM BKN015 FM171900 29010KT P6SM BKN030 FM172100 28011G21KT P6SM BKN035 FM180100 30014G29KT P6SM SCT070 FM180900 30019G35KT P6SM BKN070 FM182100 30016G30KT P6SM SKC
KBED 
12nm NW 
171734Z 1718/1818 29006KT P6SM BKN020 FM172200 29009KT P6SM BKN035 FM180000 30011G25KT P6SM SCT060 FM180200 30011G27KT P6SM SCT070 FM181200 31015G31KT P6SM SCT250
NOTAMs
Click for the latest NOTAMs
NOTAMs are issued by the DoD/FAA and will open in a separate window not controlled by AirNav.

 

 
 

Would you like to see your business listed on this page?

 If your business provides an interesting product or service to pilots, flight crews, aircraft, or users of the Massachusetts General Hospital Heliport, you should consider listing it here.  To start the listing process, click on the button below
 
Add a business
 

Other Pages about Massachusetts General Hospital Heliport

Update a link
 
Copyright © AirNav, LLC. All rights reserved. Privacy Policy  Contact